This is the latest recevied weather packets stored in our database for station/object KB2KMM. If no packets are shown the sender has not sent any weather packets the latest 10 day(s).
| Time | Temp. | Humidity | Pressure | Rain* | Wind** | Luminosity | Snow |
|---|---|---|---|---|---|---|---|
| 1777587306 | 12.78° C | 100% | 1007.6 hPa | 0.51 mm | - | - | - |
| 1777584008 | 14.44° C | 81% | 1006.9 hPa | 0 mm | - | - | - |
| 1777582209 | 15° C | 80% | 1006.5 hPa | 0 mm | - | - | - |
| 1777581009 | 16.11° C | 80% | 1006.2 hPa | 0 mm | - | - | - |
| 1777580407 | 16.11° C | 90% | 1006.1 hPa | 0 mm | - | - | - |
| 1777579807 | 15° C | 96% | 1006 hPa | 0 mm | - | - | - |
| 1777579206 | 13.89° C | 100% | 1006.1 hPa | 0 mm | - | - | - |
| 1777578609 | 13.33° C | 100% | 1006.2 hPa | 0 mm | - | - | - |
| 1777577705 | 12.78° C | 100% | 1006.5 hPa | 0 mm | - | - | - |
| 1777577409 | 12.78° C | 100% | 1006.5 hPa | 0 mm | - | - | - |
| 1777576808 | 12.78° C | 100% | 1006.6 hPa | 0 mm | - | - | - |
| 1777576505 | 12.78° C | 100% | 1006.7 hPa | 0 mm | - | - | - |
| 1777576208 | 12.78° C | 100% | 1006.7 hPa | 0 mm | - | - | - |
| 1777573808 | 11.67° C | 100% | 1006.9 hPa | 0 mm | - | - | - |
| 1777573209 | 11.67° C | 100% | 1007 hPa | 0 mm | - | - | - |
| 1777572305 | 11.67° C | 100% | 1007.2 hPa | 0 mm | - | - | - |
| 1777569906 | 11.11° C | 100% | 1007.1 hPa | 0 mm | - | - | - |
| 1777569608 | 11.11° C | 100% | 1007 hPa | 0 mm | - | - | - |
| 1777569008 | 11.11° C | 100% | 1006.9 hPa | 0 mm | - | - | - |
| 1777568705 | 11.11° C | 100% | 1006.8 hPa | 0 mm | - | - | - |
| 1777567209 | 10.56° C | 100% | 1007 hPa | 0 mm | - | - | - |
| 1777566608 | 10.56° C | 100% | 1007.1 hPa | 0 mm | - | - | - |
| 1777566009 | 10.56° C | 100% | 1007 hPa | 0 mm | - | - | - |
| 1777564208 | 10° C | 100% | 1007.6 hPa | 0.25 mm | - | - | - |
| 1777563008 | 10° C | 100% | 1007.9 hPa | 0.25 mm | - | - | - |
* Rain latest hour (hover to see other rain measurements)
** Current wind speed in m/s (hover to see current wind gust speed)